< < Back
Terminal Aerodrome Forecast


Current Version              Previous Versions:   1  2  3  4  5  6  7  8  9  

Terminal Aerodrome Forecast

479
FTUS42 KGSP 301501 AAA
TAFCLT
TAF AMD
KCLT 301501Z 3015/3112 31004KT P6SM SCT030
     FM301700 31005KT P6SM VCSH BKN045
      TEMPO 3019/3022 VRB10G20KT 4SM TSRA BKN040CB
     FM302200 33005KT P6SM BKN050
     FM310800 36007KT P6SM SCT050=

Latest METAR

043
SAUS70 KWBC 310100 RRB
MTRCLT
METAR KCLT 310052Z VRB04KT 10SM SCT060 SCT250 32/20 A2990 RMK AO2 SLP114
T03220200


USA.gov is the U.S. government's official web portal to all federal, state and local government web resources and services.